createdAt,value
2018-02-13T00:01:10.737Z,0.40
2018-02-13T00:03:38.196Z,0.40
2018-02-13T00:06:05.638Z,0.30
2018-02-13T00:08:33.104Z,0.30
2018-02-13T00:11:00.563Z,0.30
2018-02-13T00:13:28.018Z,0.30
2018-02-13T00:15:55.509Z,0.30
2018-02-13T00:18:22.978Z,0.30
2018-02-13T00:20:51.197Z,0.20
2018-02-13T00:23:18.661Z,0.20
2018-02-13T00:25:46.112Z,0.20
2018-02-13T00:28:13.577Z,0.20
2018-02-13T00:30:41.026Z,0.30
2018-02-13T00:33:08.481Z,0.30
2018-02-13T00:35:35.940Z,0.30
2018-02-13T00:38:03.396Z,0.30
2018-02-13T00:40:30.850Z,0.30
2018-02-13T00:42:58.310Z,0.30
2018-02-13T00:45:25.771Z,0.30
2018-02-13T00:47:53.221Z,0.30
2018-02-13T00:50:20.677Z,0.30
2018-02-13T00:52:48.125Z,0.30
2018-02-13T00:55:15.576Z,0.30
2018-02-13T00:57:43.021Z,0.30
2018-02-13T01:00:10.482Z,0.30
2018-02-13T01:02:37.924Z,0.40
2018-02-13T01:05:06.151Z,0.40
2018-02-13T01:07:33.588Z,0.40
2018-02-13T01:10:01.049Z,0.50
2018-02-13T01:12:28.498Z,0.50
2018-02-13T01:14:55.958Z,0.50
2018-02-13T01:17:23.405Z,0.40
2018-02-13T01:19:50.857Z,0.50
2018-02-13T01:22:18.312Z,0.50
2018-02-13T01:24:45.804Z,0.50
2018-02-13T01:27:13.258Z,0.50
2018-02-13T01:29:40.700Z,0.50
2018-02-13T01:32:08.172Z,0.60
2018-02-13T01:34:35.614Z,0.60
2018-02-13T01:37:03.090Z,0.60
2018-02-13T01:39:30.541Z,0.60
2018-02-13T01:41:58.001Z,0.60
2018-02-13T01:44:25.441Z,0.60
2018-02-13T01:46:52.897Z,0.60
2018-02-13T01:49:20.348Z,0.60
2018-02-13T01:51:47.805Z,0.60
2018-02-13T01:54:16.066Z,0.70
2018-02-13T01:56:43.520Z,0.70
2018-02-13T01:59:10.972Z,0.70
2018-02-13T02:01:38.435Z,0.70
2018-02-13T02:04:05.885Z,0.70
2018-02-13T02:06:34.101Z,0.70
2018-02-13T02:09:01.550Z,0.60
2018-02-13T02:11:29.009Z,0.60
2018-02-13T02:13:56.455Z,0.60
2018-02-13T02:16:23.906Z,0.60
2018-02-13T02:18:51.352Z,0.60
2018-02-13T02:21:18.806Z,0.50
2018-02-13T02:23:46.245Z,0.50
2018-02-13T02:26:14.465Z,0.50
2018-02-13T02:28:41.909Z,0.50
2018-02-13T02:31:09.392Z,0.50
2018-02-13T02:33:36.844Z,0.50
2018-02-13T02:36:05.065Z,0.40
2018-02-13T02:38:33.286Z,0.40
2018-02-13T02:41:00.724Z,0.40
2018-02-13T02:43:28.185Z,0.40
2018-02-13T02:45:55.624Z,0.40
2018-02-13T02:48:23.082Z,0.40
2018-02-13T02:50:50.537Z,0.40
2018-02-13T02:53:17.991Z,0.40
2018-02-13T02:55:45.433Z,0.40
2018-02-13T02:58:13.659Z,0.40
2018-02-13T03:00:41.119Z,0.40
2018-02-13T03:03:09.329Z,0.30
2018-02-13T03:05:37.545Z,0.30
2018-02-13T03:08:05.012Z,0.30
2018-02-13T03:10:32.466Z,0.30
2018-02-13T03:12:59.914Z,0.30
2018-02-13T03:15:27.357Z,0.30
2018-02-13T03:17:54.813Z,0.30
2018-02-13T03:20:22.262Z,0.30
2018-02-13T03:22:49.717Z,0.30
2018-02-13T03:25:17.930Z,0.30
2018-02-13T03:27:45.430Z,0.30
2018-02-13T03:30:12.877Z,0.30
2018-02-13T03:32:40.324Z,0.30
2018-02-13T03:35:07.773Z,0.30
2018-02-13T03:37:35.221Z,0.30
2018-02-13T03:40:02.677Z,0.30
2018-02-13T03:42:30.130Z,0.30
2018-02-13T03:44:57.582Z,0.20
2018-02-13T03:47:25.029Z,0.20
2018-02-13T03:49:52.483Z,0.20
2018-02-13T03:52:19.933Z,0.20
2018-02-13T03:54:47.398Z,0.20
2018-02-13T03:57:15.249Z,0.20
2018-02-13T03:59:42.705Z,0.20
2018-02-13T04:02:10.152Z,0.20
2018-02-13T04:04:37.605Z,0.20
2018-02-13T04:07:05.061Z,0.10
2018-02-13T04:09:33.281Z,0.00
2018-02-13T04:12:00.721Z,0.10
2018-02-13T04:14:28.178Z,0.00
2018-02-13T04:16:55.634Z,0.00
2018-02-13T04:19:23.093Z,0.00
2018-02-13T04:21:50.545Z,0.00
2018-02-13T04:24:17.998Z,0.00
2018-02-13T04:26:45.466Z,-0.10
2018-02-13T04:29:12.920Z,-0.10
2018-02-13T04:31:40.377Z,-0.10
2018-02-13T04:34:07.844Z,-0.10
2018-02-13T04:36:35.293Z,-0.10
2018-02-13T04:39:02.748Z,-0.20
2018-02-13T04:41:31.037Z,-0.20
2018-02-13T04:43:58.495Z,-0.20
2018-02-13T04:46:25.951Z,-0.20
2018-02-13T04:48:53.397Z,-0.30
2018-02-13T04:51:20.852Z,-0.30
2018-02-13T04:53:48.304Z,-0.30
2018-02-13T04:56:15.760Z,-0.30
2018-02-13T04:58:43.218Z,-0.30
2018-02-13T05:01:10.673Z,-0.30
2018-02-13T05:03:38.129Z,-0.30
2018-02-13T05:06:05.601Z,-0.40
2018-02-13T05:08:33.046Z,-0.40
2018-02-13T05:11:00.504Z,-0.40
2018-02-13T05:13:27.962Z,-0.40
2018-02-13T05:15:55.429Z,-0.40
2018-02-13T05:18:23.005Z,-0.50
2018-02-13T05:20:50.465Z,-0.50
2018-02-13T05:23:17.921Z,-0.50
2018-02-13T05:25:45.377Z,-0.50
2018-02-13T05:28:12.834Z,-0.60
2018-02-13T05:30:40.306Z,-0.60
2018-02-13T05:33:08.524Z,-0.60
2018-02-13T05:35:36.010Z,-0.60
2018-02-13T05:38:03.461Z,-0.60
2018-02-13T05:40:31.686Z,-0.60
2018-02-13T05:42:59.144Z,-0.60
2018-02-13T05:45:27.374Z,-0.50
2018-02-13T05:47:54.828Z,-0.50
2018-02-13T05:50:22.295Z,-0.50
2018-02-13T05:52:49.752Z,-0.50
2018-02-13T05:55:17.205Z,-0.50
2018-02-13T05:57:44.672Z,-0.50
2018-02-13T06:00:12.120Z,-0.50
2018-02-13T06:02:39.588Z,-0.40
2018-02-13T06:05:07.047Z,-0.40
2018-02-13T06:07:34.505Z,-0.40
2018-02-13T06:10:01.953Z,-0.40
2018-02-13T06:12:29.412Z,-0.40
2018-02-13T06:14:56.866Z,-0.30
2018-02-13T06:17:24.316Z,-0.40
2018-02-13T06:19:51.770Z,-0.40
2018-02-13T06:22:19.225Z,-0.30
2018-02-13T06:24:46.680Z,-0.30
2018-02-13T06:27:14.145Z,-0.30
2018-02-13T06:29:41.597Z,-0.30
2018-02-13T06:32:09.056Z,-0.30
2018-02-13T06:34:36.509Z,-0.30
2018-02-13T06:37:04.053Z,-0.30
2018-02-13T06:39:31.509Z,-0.30
2018-02-13T06:41:58.973Z,-0.30
2018-02-13T06:44:26.425Z,-0.30
2018-02-13T06:46:53.890Z,-0.30
2018-02-13T06:49:21.344Z,-0.20
2018-02-13T06:51:48.801Z,-0.20
2018-02-13T06:54:16.261Z,-0.20
2018-02-13T06:56:43.714Z,-0.20
2018-02-13T06:59:11.190Z,-0.20
2018-02-13T07:01:38.624Z,-0.20
2018-02-13T07:04:06.853Z,-0.30
2018-02-13T07:06:34.305Z,-0.30
2018-02-13T07:09:01.764Z,-0.30
2018-02-13T07:11:29.217Z,-0.30
2018-02-13T07:13:57.437Z,-0.40
2018-02-13T07:16:24.893Z,-0.40
2018-02-13T07:18:52.360Z,-0.40
2018-02-13T07:21:19.816Z,-0.30
2018-02-13T07:23:47.277Z,-0.30
2018-02-13T07:26:14.720Z,-0.30
2018-02-13T07:28:42.189Z,-0.20
2018-02-13T07:31:09.637Z,-0.20
2018-02-13T07:33:37.093Z,-0.10
2018-02-13T07:36:04.545Z,-0.10
2018-02-13T07:38:32.005Z,-0.10
2018-02-13T07:40:59.455Z,0.00
2018-02-13T07:43:26.917Z,0.00
2018-02-13T07:45:55.125Z,0.00
2018-02-13T07:48:22.573Z,0.00
2018-02-13T07:50:50.017Z,0.10
2018-02-13T07:53:17.472Z,0.10
2018-02-13T07:55:44.937Z,0.00
2018-02-13T07:58:12.393Z,0.10
2018-02-13T08:00:39.844Z,0.10
2018-02-13T08:03:07.301Z,0.10
2018-02-13T08:05:34.758Z,0.10
2018-02-13T08:08:02.211Z,0.20
2018-02-13T08:10:29.652Z,0.20
2018-02-13T08:12:57.093Z,0.20
2018-02-13T08:15:24.565Z,0.20
2018-02-13T08:17:52.009Z,0.20
2018-02-13T08:20:19.466Z,0.30
2018-02-13T08:22:46.910Z,0.30
2018-02-13T08:25:14.365Z,0.40
2018-02-13T08:27:41.841Z,0.40
2018-02-13T08:30:09.300Z,0.40
2018-02-13T08:32:36.754Z,0.50
2018-02-13T08:35:04.211Z,0.50
2018-02-13T08:37:31.654Z,0.50
2018-02-13T08:39:59.112Z,0.60
2018-02-13T08:42:26.566Z,0.60
2018-02-13T08:44:54.016Z,0.70
2018-02-13T08:47:21.464Z,0.80
2018-02-13T08:49:48.915Z,0.90
2018-02-13T08:52:16.368Z,0.90
2018-02-13T08:54:44.601Z,1.00
2018-02-13T08:57:14.207Z,0.90
2018-02-13T08:59:41.645Z,1.00
2018-02-13T09:02:09.096Z,1.10
2018-02-13T09:04:36.544Z,1.10
2018-02-13T09:07:03.984Z,1.10
2018-02-13T09:09:31.456Z,1.20
2018-02-13T09:11:58.905Z,1.20
2018-02-13T09:14:26.348Z,1.30
2018-02-13T09:16:53.808Z,1.30
2018-02-13T09:19:22.009Z,1.40
2018-02-13T09:21:49.460Z,1.40
2018-02-13T09:24:16.913Z,1.40
2018-02-13T09:26:44.377Z,1.40
2018-02-13T09:29:11.810Z,1.40
2018-02-13T09:31:39.257Z,1.40
2018-02-13T09:34:07.474Z,1.50
2018-02-13T09:36:34.997Z,1.50
2018-02-13T09:39:02.433Z,1.50
2018-02-13T09:41:30.672Z,1.60
2018-02-13T09:43:58.124Z,1.60
2018-02-13T09:46:25.577Z,1.60
2018-02-13T09:48:53.021Z,1.70
2018-02-13T09:51:20.477Z,1.70
2018-02-13T09:53:47.926Z,1.70
2018-02-13T09:56:15.385Z,1.70
2018-02-13T09:58:42.825Z,1.80
2018-02-13T10:01:10.281Z,1.80
2018-02-13T10:03:37.730Z,1.80
2018-02-13T10:06:06.728Z,2.00
2018-02-13T10:08:34.246Z,1.90
2018-02-13T10:11:01.687Z,2.00
2018-02-13T10:13:29.128Z,2.00
2018-02-13T10:15:56.608Z,2.10
2018-02-13T10:18:24.045Z,2.10
2018-02-13T10:20:51.493Z,2.10
2018-02-13T10:23:18.964Z,2.20
2018-02-13T10:25:46.420Z,2.20
2018-02-13T10:28:13.878Z,2.20
2018-02-13T10:30:41.325Z,2.30
2018-02-13T10:33:08.780Z,2.30
2018-02-13T10:35:36.220Z,2.30
2018-02-13T10:38:03.678Z,2.40
2018-02-13T10:40:31.112Z,2.40
2018-02-13T10:42:59.340Z,2.50
2018-02-13T10:45:26.797Z,2.40
2018-02-13T10:47:54.249Z,2.40
2018-02-13T10:50:22.460Z,2.50
2018-02-13T10:52:50.681Z,2.50
2018-02-13T10:55:18.139Z,2.50
2018-02-13T10:57:45.584Z,2.50
2018-02-13T11:00:13.041Z,2.50
2018-02-13T11:02:40.500Z,2.50
2018-02-13T11:05:07.940Z,2.50
2018-02-13T11:07:35.388Z,2.60
2018-02-13T11:10:03.604Z,2.60
2018-02-13T11:12:31.060Z,2.60
2018-02-13T11:14:58.513Z,2.60
2018-02-13T11:17:25.969Z,2.60
2018-02-13T11:19:53.420Z,2.60
2018-02-13T11:22:20.881Z,2.60
2018-02-13T11:24:48.322Z,2.70
2018-02-13T11:27:16.457Z,2.70
2018-02-13T11:29:44.677Z,2.70
2018-02-13T11:32:12.129Z,2.70
2018-02-13T11:34:39.580Z,2.70
2018-02-13T11:37:07.038Z,2.80
2018-02-13T11:39:34.497Z,2.80
2018-02-13T11:42:01.942Z,2.80
2018-02-13T11:44:29.428Z,2.90
2018-02-13T11:46:56.876Z,2.90
2018-02-13T11:49:24.330Z,2.90
2018-02-13T11:51:51.777Z,2.90
2018-02-13T11:54:19.234Z,3.00
2018-02-13T11:56:46.679Z,3.00
2018-02-13T11:59:14.133Z,3.00
2018-02-13T12:01:41.573Z,3.00
2018-02-13T12:04:09.788Z,3.10
2018-02-13T12:06:37.336Z,3.10
2018-02-13T12:09:04.781Z,3.10
2018-02-13T12:11:32.225Z,3.10
2018-02-13T12:14:00.442Z,3.20
2018-02-13T12:16:27.885Z,3.10
2018-02-13T12:18:55.340Z,3.20
2018-02-13T12:21:22.788Z,3.20
2018-02-13T12:23:50.232Z,3.20
2018-02-13T12:26:17.683Z,3.20
2018-02-13T12:28:45.900Z,3.30
2018-02-13T12:31:13.346Z,3.30
2018-02-13T12:33:40.793Z,3.30
2018-02-13T12:36:08.253Z,3.30
2018-02-13T12:38:35.708Z,3.30
2018-02-13T12:41:03.161Z,3.30
2018-02-13T12:43:30.608Z,3.30
2018-02-13T12:45:58.061Z,3.30
2018-02-13T12:48:25.537Z,3.40
2018-02-13T12:50:52.982Z,3.40
2018-02-13T12:53:20.432Z,3.40
2018-02-13T12:55:47.884Z,3.40
2018-02-13T12:58:15.333Z,3.40
2018-02-13T13:00:43.557Z,3.40
2018-02-13T13:03:11.000Z,3.40
2018-02-13T13:05:38.513Z,3.40
2018-02-13T13:08:05.932Z,3.40
2018-02-13T13:10:33.389Z,3.50
2018-02-13T13:13:00.828Z,3.40
2018-02-13T13:15:28.280Z,3.50
2018-02-13T13:17:55.743Z,3.50
2018-02-13T13:20:23.190Z,3.60
2018-02-13T13:22:50.632Z,3.60
2018-02-13T13:25:18.082Z,3.60
2018-02-13T13:27:45.525Z,3.60
2018-02-13T13:30:13.753Z,3.70
2018-02-13T13:32:41.205Z,3.60
2018-02-13T13:35:08.643Z,3.70
2018-02-13T13:37:36.104Z,3.70
2018-02-13T13:40:03.557Z,3.70
2018-02-13T13:42:31.013Z,3.70
2018-02-13T13:44:58.471Z,3.70
2018-02-13T13:47:25.956Z,3.70
2018-02-13T13:49:53.401Z,3.80
2018-02-13T13:52:20.853Z,3.80
2018-02-13T13:54:48.305Z,3.80
2018-02-13T13:57:16.433Z,3.90
2018-02-13T13:59:44.666Z,3.90
2018-02-13T14:02:12.104Z,3.90
2018-02-13T14:04:39.553Z,3.90
2018-02-13T14:07:07.001Z,3.90
2018-02-13T14:09:34.444Z,3.90
2018-02-13T14:12:02.672Z,3.80
2018-02-13T14:14:30.885Z,3.80
2018-02-13T14:16:59.668Z,3.80
2018-02-13T14:19:27.088Z,3.80
2018-02-13T14:21:54.546Z,3.80
2018-02-13T14:24:21.998Z,3.80
2018-02-13T14:26:50.222Z,3.80
2018-02-13T14:29:18.438Z,3.80
2018-02-13T14:31:45.888Z,3.80
2018-02-13T14:34:13.336Z,3.80
2018-02-13T14:36:40.793Z,3.80
2018-02-13T14:39:08.233Z,3.80
2018-02-13T14:41:35.713Z,3.80
2018-02-13T14:44:03.156Z,3.80
2018-02-13T14:46:30.601Z,3.80
2018-02-13T14:48:58.053Z,3.70
2018-02-13T14:51:26.260Z,3.70
2018-02-13T14:53:53.714Z,3.70
2018-02-13T14:56:21.164Z,3.70
2018-02-13T14:58:48.621Z,3.70
2018-02-13T15:01:16.069Z,3.70
2018-02-13T15:03:43.516Z,3.70
2018-02-13T15:06:10.965Z,3.70
2018-02-13T15:08:39.189Z,3.60
2018-02-13T15:11:06.628Z,3.60
2018-02-13T15:13:34.097Z,3.60
2018-02-13T15:16:01.532Z,3.60
2018-02-13T15:18:43.871Z,3.60
2018-02-13T15:21:11.313Z,3.60
2018-02-13T15:26:13.548Z,3.50
2018-02-13T15:28:41.764Z,3.50
2018-02-13T15:31:09.223Z,3.50
2018-02-13T15:33:36.669Z,3.50
2018-02-13T15:36:04.111Z,3.50
2018-02-13T15:38:31.565Z,3.50
2018-02-13T15:40:59.009Z,3.50
2018-02-13T15:43:27.224Z,3.40
2018-02-13T15:45:54.668Z,3.40
2018-02-13T15:48:22.120Z,3.40
2018-02-13T15:50:49.565Z,3.40
2018-02-13T15:53:17.018Z,3.40
2018-02-13T15:55:44.465Z,3.40
2018-02-13T15:58:12.676Z,3.40
2018-02-13T16:00:40.123Z,3.40
2018-02-13T16:03:07.568Z,3.30
2018-02-13T16:05:35.039Z,3.30
2018-02-13T16:08:02.488Z,3.20
2018-02-13T16:10:29.933Z,3.20
2018-02-13T16:12:57.378Z,3.20
2018-02-13T16:15:25.588Z,3.10
2018-02-13T16:17:53.049Z,3.20
2018-02-13T16:20:20.492Z,3.10
2018-02-13T16:22:47.951Z,3.10
2018-02-13T16:25:15.404Z,3.10
2018-02-13T16:27:42.848Z,3.00
2018-02-13T16:30:10.301Z,3.00
2018-02-13T16:32:37.749Z,3.00
2018-02-13T16:35:05.204Z,2.90
2018-02-13T16:37:33.419Z,2.90
2018-02-13T16:40:00.868Z,2.90
2018-02-13T16:42:28.317Z,2.80
2018-02-13T16:44:55.774Z,2.80
2018-02-13T16:47:23.216Z,2.80
2018-02-13T16:49:50.673Z,2.80
2018-02-13T16:52:18.129Z,2.70
2018-02-13T16:54:45.581Z,2.70
2018-02-13T16:57:13.044Z,2.70
2018-02-13T16:59:40.497Z,2.70
2018-02-13T17:02:07.952Z,2.60
2018-02-13T17:04:35.396Z,2.60
2018-02-13T17:07:03.623Z,2.50
2018-02-13T17:09:31.068Z,2.50
2018-02-13T17:11:58.525Z,2.50
2018-02-13T17:14:26.013Z,2.50
2018-02-13T17:16:53.448Z,2.40
2018-02-13T17:19:20.897Z,2.40
2018-02-13T17:21:48.349Z,2.40
2018-02-13T17:24:15.801Z,2.40
2018-02-13T17:26:43.257Z,2.30
2018-02-13T17:29:10.705Z,2.30
2018-02-13T17:31:38.171Z,2.30
2018-02-13T17:34:05.625Z,2.30
2018-02-13T17:36:33.077Z,2.20
2018-02-13T17:39:00.529Z,2.20
2018-02-13T17:41:27.985Z,2.20
2018-02-13T17:43:55.428Z,2.20
2018-02-13T17:46:22.885Z,2.20
2018-02-13T17:48:50.341Z,2.10
2018-02-13T17:51:17.792Z,2.10
2018-02-13T17:53:46.002Z,2.00
2018-02-13T17:56:13.481Z,2.00
2018-02-13T17:58:40.927Z,2.00
2018-02-13T18:01:08.367Z,2.00
2018-02-13T18:03:35.825Z,1.90
2018-02-13T18:06:03.278Z,1.90
2018-02-13T18:08:30.731Z,1.90
2018-02-13T18:10:58.370Z,1.80
2018-02-13T18:13:25.824Z,1.80
2018-02-13T18:15:53.267Z,1.80
2018-02-13T18:18:20.724Z,1.80
2018-02-13T18:20:48.940Z,1.80
2018-02-13T18:23:16.396Z,1.80
2018-02-13T18:25:43.853Z,1.80
2018-02-13T18:28:11.309Z,1.70
2018-02-13T18:30:38.766Z,1.70
2018-02-13T18:33:06.213Z,1.70
2018-02-13T18:35:33.664Z,1.70
2018-02-13T18:38:01.122Z,1.70
2018-02-13T18:40:28.564Z,1.70
2018-02-13T18:42:56.021Z,1.70
2018-02-13T18:45:23.475Z,1.60
2018-02-13T18:47:51.698Z,1.60
2018-02-13T18:50:19.148Z,1.60
2018-02-13T18:55:14.049Z,1.60
2018-02-13T18:57:41.499Z,1.50
2018-02-13T19:00:08.956Z,1.50
2018-02-13T19:02:36.417Z,1.50
2018-02-13T19:05:03.881Z,1.50
2018-02-13T19:07:31.333Z,1.50
2018-02-13T19:09:58.784Z,1.50
2018-02-13T19:12:26.254Z,1.50
2018-02-13T19:14:53.705Z,1.50
2018-02-13T19:17:21.213Z,1.40
2018-02-13T19:19:48.632Z,1.40
2018-02-13T19:22:16.089Z,1.40
2018-02-13T19:24:43.548Z,1.40
2018-02-13T19:27:11.004Z,1.40
2018-02-13T19:29:38.460Z,1.40
2018-02-13T19:32:05.920Z,1.40
2018-02-13T19:34:33.376Z,1.30
2018-02-13T19:37:00.832Z,1.30
2018-02-13T19:39:28.296Z,1.30
2018-02-13T19:41:55.753Z,1.30
2018-02-13T19:44:23.209Z,1.30
2018-02-13T19:46:50.661Z,1.30
2018-02-13T19:49:18.113Z,1.30
2018-02-13T19:51:45.569Z,1.20
2018-02-13T19:54:13.033Z,1.20
2018-02-13T19:56:40.491Z,1.20
2018-02-13T19:59:07.948Z,1.20
2018-02-13T20:01:35.396Z,1.20
2018-02-13T20:04:02.881Z,1.20
2018-02-13T20:06:30.326Z,1.10
2018-02-13T20:08:57.791Z,1.10
2018-02-13T20:11:25.232Z,1.10
2018-02-13T20:13:52.680Z,1.10
2018-02-13T20:16:20.142Z,1.10
2018-02-13T20:18:48.365Z,1.10
2018-02-13T20:21:15.820Z,1.00
2018-02-13T20:23:43.280Z,1.00
2018-02-13T20:26:10.753Z,1.00
2018-02-13T20:28:38.194Z,1.00
2018-02-13T20:31:05.648Z,1.00
2018-02-13T20:33:33.102Z,1.00
2018-02-13T20:36:01.328Z,1.00
2018-02-13T20:38:28.814Z,0.90
2018-02-13T20:40:56.273Z,0.90
2018-02-13T20:43:24.501Z,0.90
2018-02-13T20:45:51.953Z,0.90
2018-02-13T20:48:19.416Z,0.90
2018-02-13T20:50:47.648Z,0.80
2018-02-13T20:53:15.867Z,0.80
2018-02-13T20:55:43.320Z,0.80
2018-02-13T20:58:10.773Z,0.80
2018-02-13T21:00:38.228Z,0.80
2018-02-13T21:03:05.685Z,0.80
2018-02-13T21:05:33.140Z,0.80
2018-02-13T21:08:00.597Z,0.70
2018-02-13T21:10:28.055Z,0.70
2018-02-13T21:12:55.509Z,0.70
2018-02-13T21:15:22.965Z,0.70
2018-02-13T21:17:50.416Z,0.70
2018-02-13T21:20:17.998Z,0.70
2018-02-13T21:22:45.462Z,0.60
2018-02-13T21:25:12.917Z,0.60
2018-02-13T21:27:40.381Z,0.60
2018-02-13T21:30:07.831Z,0.60
2018-02-13T21:32:35.312Z,0.60
2018-02-13T21:35:02.761Z,0.60
2018-02-13T21:37:30.228Z,0.60
2018-02-13T21:39:57.673Z,0.60
2018-02-13T21:42:25.132Z,0.50
2018-02-13T21:44:52.593Z,0.50
2018-02-13T21:47:20.057Z,0.50
2018-02-13T21:49:48.273Z,0.50
2018-02-13T21:52:15.733Z,0.40
2018-02-13T21:54:43.181Z,0.40
2018-02-13T21:57:10.679Z,0.40
2018-02-13T21:59:38.128Z,0.40
2018-02-13T22:02:05.590Z,0.40
2018-02-13T22:04:33.060Z,0.40
2018-02-13T22:07:00.552Z,0.30
2018-02-13T22:09:28.000Z,0.30
2018-02-13T22:11:56.237Z,0.20
2018-02-13T22:14:23.709Z,0.20
2018-02-13T22:16:51.193Z,0.20
2018-02-13T22:19:18.644Z,0.20
2018-02-13T22:21:46.869Z,0.20
2018-02-13T22:24:14.361Z,0.20
2018-02-13T22:26:41.812Z,0.10
2018-02-13T22:29:09.272Z,0.10
2018-02-13T22:31:36.724Z,0.10
2018-02-13T22:34:04.185Z,0.10
2018-02-13T22:36:31.636Z,0.00
2018-02-13T22:38:59.096Z,0.00
2018-02-13T22:41:26.540Z,0.00
2018-02-13T22:43:54.010Z,0.00
2018-02-13T22:46:21.473Z,-0.10
2018-02-13T22:48:49.705Z,-0.10
2018-02-13T22:51:17.169Z,-0.10
2018-02-13T22:53:44.628Z,-0.10
2018-02-13T22:56:12.089Z,-0.10
2018-02-13T22:58:39.553Z,-0.10
2018-02-13T23:01:07.013Z,-0.20
2018-02-13T23:03:34.488Z,-0.20
2018-02-13T23:06:01.940Z,-0.20
2018-02-13T23:08:29.410Z,-0.30
2018-02-13T23:10:57.621Z,-0.30
2018-02-13T23:13:25.093Z,-0.30
2018-02-13T23:15:52.549Z,-0.30
2018-02-13T23:18:20.776Z,-0.40
2018-02-13T23:20:49.001Z,-0.40
2018-02-13T23:23:16.488Z,-0.40
2018-02-13T23:25:43.947Z,-0.40
2018-02-13T23:28:11.405Z,-0.40
2018-02-13T23:30:38.868Z,-0.40
2018-02-13T23:33:07.095Z,-0.50
2018-02-13T23:35:34.561Z,-0.50
2018-02-13T23:38:02.029Z,-0.50
2018-02-13T23:40:29.496Z,-0.50
2018-02-13T23:42:56.969Z,-0.50
2018-02-13T23:45:25.200Z,-0.60
2018-02-13T23:47:52.653Z,-0.60
2018-02-13T23:50:20.121Z,-0.60
2018-02-13T23:52:47.577Z,-0.70
2018-02-13T23:55:15.049Z,-0.70
2018-02-13T23:57:42.513Z,-0.70
